Terminal Aerodrome Forecast
Issued by NWS Cleveland, OH

Home | Current Version | Previous Version | Graphics & Text | Print | Product List | Glossary On
Versions: 1 2 3 4 5 6 7 8 9 10 11 12 13 14 15
898
FTUS41 KCLE 262328
TAFMFD
TAF
KMFD 262328Z 2700/2724 19008KT P6SM VCSH SCT060 BKN200
     FM270800 20004KT 4SM BR BKN250
     FM271400 20006KT P6SM SCT045 BKN250=

USA.gov is the U.S. government's official web portal to all federal, state and local government web resources and services.